KNUW

Whidbey Island NAS / Ault Field Airport

Oak Harbor, Washington, USA
METAR KNUW 261256Z 22008KT 10SM BKN020 BKN180 BKN250 13/08 A3014 RMK SLP206 T01280078
Observed Flight Rules
May-26 @ 12:56 UTC (40 minutes ago) Marginal Visual Flight Rules
Wind Visibility Clouds
220° at 8 knots 10 miles
  • Broken at 2,000' AGL
  • Broken at 18,000' AGL
  • Broken at 25,000' AGL
Temperatures Readings
Current 13°C / 55°F
Dewpoint 8°C / 46°F
Humidity 72%
Altimeter 30.14" Hg
Pressure 1020.6 hPa
Elevation 14
METAR KNUW 261256Z 22008KT 10SM BKN020 BKN180 BKN250 13/08 A3014 RMK SLP206 T01280078
Observed Flight Rules
May-26 @ 12:56 UTC
(40 minutes ago)
MVFR
Wind Visibility
220° at 8 knots 10 miles
Clouds
  • Broken at 2,000' AGL
  • Broken at 18,000' AGL
  • Broken at 25,000' AGL
Temperature Dewpoint
13°C / 55°F 8°C / 46°F
Humidity Altimeter Pressure
72% 30.14" Hg 1020.6 hPa